Time;durP1;ratioP1;P1;durP2;ratioP2;P2;SDS_P1;SDS_P2;PMS_P1;PMS_P2;Temp;Humidity;BMP_temperature;BMP_pressure;BME280_temperature;BME280_humidity;BME280_pressure;Samples;Min_cycle;Max_cycle;Signal;HPM_P1;HPM_P2
2021/10/21 00:01:50;;;;;;;13.57;6.78;;;13.90;99.90;;;;;;5072339;28;20082;-74
2021/10/21 00:04:19;;;;;;;17.23;8.05;;;14.00;99.90;;;;;;5071604;28;20024;-74
2021/10/21 00:06:44;;;;;;;11.60;6.30;;;14.00;99.90;;;;;;5071295;28;20493;-74
2021/10/21 00:09:10;;;;;;;12.27;6.03;;;14.00;99.90;;;;;;5072644;28;20036;-74
2021/10/21 00:11:36;;;;;;;12.85;5.75;;;14.00;99.90;;;;;;5071579;28;20411;-73
2021/10/21 00:14:03;;;;;;;7.05;5.47;;;14.10;99.90;;;;;;5071884;28;20021;-74
2021/10/21 00:16:28;;;;;;;7.32;5.28;;;14.00;99.90;;;;;;5057401;28;20350;-73
2021/10/21 00:18:55;;;;;;;9.10;5.50;;;14.00;99.90;;;;;;5071148;28;20032;-73
2021/10/21 00:21:20;;;;;;;7.40;4.90;;;14.60;99.90;;;;;;5071817;28;20082;-73
2021/10/21 00:23:46;;;;;;;10.80;4.20;;;14.00;99.90;;;;;;5072024;28;20020;-73
2021/10/21 00:26:12;;;;;;;7.40;3.55;;;14.00;99.90;;;;;;5071004;28;20484;-73
2021/10/21 00:28:38;;;;;;;10.95;4.40;;;14.00;99.90;;;;;;5071938;28;20081;-73
2021/10/21 00:31:04;;;;;;;9.05;3.95;;;14.00;99.90;;;;;;5071990;28;20031;-73
2021/10/21 00:33:31;;;;;;;10.50;3.72;;;14.00;99.90;;;;;;5070716;28;20021;-73
2021/10/21 00:35:56;;;;;;;6.38;4.22;;;14.10;99.90;;;;;;5072125;28;20131;-73
2021/10/21 00:38:22;;;;;;;7.53;3.65;;;14.10;99.90;;;;;;5072134;28;20028;-74
2021/10/21 00:40:48;;;;;;;3.42;1.60;;;14.10;99.90;;;;;;5071328;28;20020;-74
2021/10/21 00:43:14;;;;;;;2.53;1.10;;;14.00;99.90;;;;;;5071796;28;20097;-74
2021/10/21 00:45:40;;;;;;;1.45;1.02;;;13.80;99.90;;;;;;5072328;28;20031;-74
2021/10/21 00:48:05;;;;;;;1.42;0.70;;;13.60;99.90;;;;;;5071042;28;20033;-75
2021/10/21 00:50:32;;;;;;;1.52;0.70;;;13.40;99.90;;;;;;5071519;28;20433;-74
2021/10/21 00:52:58;;;;;;;5.63;1.17;;;13.20;99.90;;;;;;5071939;28;20036;-74
2021/10/21 00:55:27;;;;;;;6.80;1.40;;;13.00;99.90;;;;;;5070941;28;20131;-74
2021/10/21 00:57:54;;;;;;;11.25;1.42;;;12.90;99.90;;;;;;5071713;28;20020;-75
2021/10/21 01:00:20;;;;;;;5.03;1.10;;;12.90;99.90;;;;;;5071338;28;20028;-74
2021/10/21 01:02:45;;;;;;;6.85;1.33;;;12.80;99.90;;;;;;5070650;28;20025;-74
2021/10/21 01:05:11;;;;;;;3.65;1.10;;;12.70;99.90;;;;;;5071409;28;20100;-74
2021/10/21 01:07:37;;;;;;;6.10;1.08;;;12.60;99.90;;;;;;5071409;28;20484;-73
2021/10/21 01:10:08;;;;;;;3.58;1.10;;;12.60;99.90;;;;;;5070621;28;20414;-74
2021/10/21 01:12:35;;;;;;;2.08;1.08;;;12.50;99.90;;;;;;5071538;28;20465;-74
2021/10/21 01:15:19;;;;;;;6.57;1.30;;;12.50;99.90;;;;;;5070821;28;20025;-73
2021/10/21 01:17:45;;;;;;;6.53;1.35;;;12.40;99.90;;;;;;5071508;28;20025;-73
2021/10/21 01:20:11;;;;;;;5.25;1.17;;;12.30;99.90;;;;;;5073762;28;20023;-75
2021/10/21 01:22:38;;;;;;;5.20;1.10;;;12.30;99.90;;;;;;5074579;28;20115;-73
2021/10/21 01:25:04;;;;;;;6.00;1.20;;;12.30;99.90;;;;;;5071392;28;20028;-73
2021/10/21 01:27:30;;;;;;;8.43;1.00;;;12.30;99.90;;;;;;5074539;28;20033;-75
2021/10/21 01:29:55;;;;;;;5.72;0.80;;;12.20;99.90;;;;;;5074224;28;20031;-73
2021/10/21 01:32:25;;;;;;;3.03;0.65;;;12.20;99.90;;;;;;5074970;28;20028;-74
2021/10/21 01:34:51;;;;;;;2.33;0.85;;;12.20;99.90;;;;;;5075082;28;20028;-74
2021/10/21 01:37:17;;;;;;;5.70;0.98;;;12.20;99.90;;;;;;5059919;28;20028;-74
2021/10/21 01:39:43;;;;;;;0.47;0.20;;;12.50;99.90;;;;;;5074985;28;20070;-74
2021/10/21 01:42:08;;;;;;;1.17;0.43;;;12.10;99.90;;;;;;5074307;28;20139;-75
2021/10/21 01:44:34;;;;;;;3.72;0.73;;;12.10;99.90;;;;;;5065607;28;20029;-74
2021/10/21 01:46:59;;;;;;;5.07;0.68;;;12.20;99.90;;;;;;5069077;28;20036;-74
2021/10/21 01:49:25;;;;;;;4.07;0.50;;;12.20;99.90;;;;;;5074388;28;20116;-75
2021/10/21 01:51:51;;;;;;;2.50;0.60;;;12.20;99.90;;;;;;5074065;28;20104;-74
2021/10/21 01:54:19;;;;;;;3.28;0.60;;;12.20;99.90;;;;;;5074233;28;20376;-74
2021/10/21 01:56:45;;;;;;;3.30;0.50;;;12.30;99.90;;;;;;5074517;28;20025;-75
2021/10/21 01:59:11;;;;;;;3.70;0.70;;;12.20;99.90;;;;;;5073585;28;20028;-74
2021/10/21 02:01:37;;;;;;;3.60;0.65;;;12.20;99.90;;;;;;5074661;28;20028;-74
2021/10/21 02:04:03;;;;;;;8.68;1.05;;;12.30;99.90;;;;;;5074274;28;20027;-74
2021/10/21 02:06:29;;;;;;;3.92;0.77;;;12.30;99.90;;;;;;5073762;28;20033;-74
2021/10/21 02:08:54;;;;;;;3.60;0.55;;;12.30;99.90;;;;;;5074384;28;20507;-75
2021/10/21 02:11:20;;;;;;;0.68;0.43;;;12.30;99.90;;;;;;5073112;28;20158;-74
2021/10/21 02:13:46;;;;;;;6.28;1.67;;;12.30;99.90;;;;;;5074237;28;20021;-74
2021/10/21 02:16:11;;;;;;;6.55;2.17;;;12.20;99.90;;;;;;5073993;28;20054;-73
2021/10/21 02:18:37;;;;;;;2.80;0.88;;;12.10;99.90;;;;;;5073523;28;20472;-74
2021/10/21 02:21:03;;;;;;;1.88;0.80;;;12.10;99.90;;;;;;5074110;28;20063;-73
2021/10/21 02:23:28;;;;;;;3.50;1.00;;;12.10;99.90;;;;;;5073751;28;20046;-73
2021/10/21 02:25:54;;;;;;;4.55;1.10;;;12.10;99.90;;;;;;5073145;28;20554;-74
2021/10/21 02:28:20;;;;;;;4.35;0.98;;;12.00;99.90;;;;;;5073735;28;20040;-74
2021/10/21 02:30:45;;;;;;;5.50;0.95;;;12.00;99.90;;;;;;5074013;28;20423;-73
2021/10/21 02:33:11;;;;;;;2.40;0.70;;;12.00;99.90;;;;;;5072987;28;20098;-74
2021/10/21 02:35:36;;;;;;;3.55;1.00;;;11.90;99.90;;;;;;5073827;28;20107;-74
2021/10/21 02:38:05;;;;;;;6.85;0.98;;;12.00;99.90;;;;;;5066465;28;20021;-75
2021/10/21 02:40:30;;;;;;;5.07;0.90;;;11.90;99.90;;;;;;5052652;28;20056;-74
2021/10/21 02:42:56;;;;;;;2.95;0.80;;;11.90;99.90;;;;;;5058699;28;20084;-73
2021/10/21 02:45:21;;;;;;;6.28;1.17;;;11.80;99.90;;;;;;5065478;28;20036;-73
2021/10/21 02:47:48;;;;;;;4.07;1.17;;;11.90;99.90;;;;;;5059688;28;20064;-73
2021/10/21 02:50:13;;;;;;;3.58;1.02;;;11.80;99.90;;;;;;5060504;28;20385;-73
2021/10/21 02:52:39;;;;;;;2.88;1.10;;;11.80;99.90;;;;;;5072300;28;20024;-73
2021/10/21 02:55:05;;;;;;;1.75;0.70;;;11.80;99.90;;;;;;5062077;28;20474;-73
2021/10/21 02:57:31;;;;;;;5.85;0.98;;;11.80;99.90;;;;;;5069666;28;20032;-73
2021/10/21 02:59:56;;;;;;;6.55;1.27;;;11.80;99.90;;;;;;5073523;28;20016;-73
2021/10/21 03:02:22;;;;;;;9.60;1.92;;;11.90;99.90;;;;;;5072878;28;20161;-73
2021/10/21 03:04:47;;;;;;;7.40;1.35;;;11.80;99.90;;;;;;5073362;28;20107;-73
2021/10/21 03:07:13;;;;;;;3.70;0.88;;;11.90;99.90;;;;;;5072889;28;20029;-74
2021/10/21 03:09:38;;;;;;;3.28;0.90;;;12.00;99.90;;;;;;5072582;28;20020;-72
2021/10/21 03:12:04;;;;;;;3.72;0.73;;;12.00;99.90;;;;;;5063497;28;20056;-75
2021/10/21 03:14:29;;;;;;;3.92;0.70;;;12.10;99.90;;;;;;5067631;28;20021;-75
2021/10/21 03:16:55;;;;;;;4.68;1.15;;;12.10;99.90;;;;;;5073386;28;20020;-74
2021/10/21 03:19:20;;;;;;;4.63;0.85;;;12.10;99.90;;;;;;5073323;28;20024;-73
2021/10/21 03:21:46;;;;;;;7.03;1.10;;;12.20;99.90;;;;;;5072406;28;20323;-73
2021/10/21 03:24:12;;;;;;;6.80;0.95;;;12.20;99.90;;;;;;5072456;28;20381;-73
2021/10/21 03:26:37;;;;;;;7.50;1.25;;;12.10;99.90;;;;;;5073017;28;20021;-74
2021/10/21 03:29:03;;;;;;;5.40;0.88;;;12.20;99.90;;;;;;5072231;28;20039;-74
2021/10/21 03:31:29;;;;;;;6.38;1.02;;;12.20;99.90;;;;;;5072499;28;20034;-73
2021/10/21 03:33:57;;;;;;;3.95;1.20;;;12.20;99.90;;;;;;5072516;28;20358;-73
2021/10/21 03:36:24;;;;;;;6.97;1.42;;;12.20;99.90;;;;;;5071585;28;20028;-73
2021/10/21 03:38:51;;;;;;;4.53;0.95;;;12.20;99.90;;;;;;5072775;28;20024;-73
2021/10/21 03:41:16;;;;;;;3.65;1.23;;;12.20;99.90;;;;;;5059876;28;20025;-73
2021/10/21 03:43:42;;;;;;;7.30;1.27;;;12.20;99.90;;;;;;5069831;28;20511;-74
2021/10/21 03:46:07;;;;;;;4.28;1.10;;;12.20;99.90;;;;;;5062779;28;20021;-74
2021/10/21 03:48:33;;;;;;;8.32;1.10;;;12.20;99.90;;;;;;5067682;28;20028;-74
2021/10/21 03:50:58;;;;;;;6.68;1.58;;;12.30;99.90;;;;;;5071825;28;20027;-74
2021/10/21 03:53:24;;;;;;;4.60;1.08;;;12.30;99.90;;;;;;5071843;28;20035;-74
2021/10/21 03:55:50;;;;;;;7.18;1.55;;;12.30;99.90;;;;;;5072475;28;20012;-73
2021/10/21 03:58:15;;;;;;;3.47;0.82;;;12.30;99.90;;;;;;5060540;28;20021;-74
2021/10/21 04:00:42;;;;;;;5.15;1.55;;;12.40;99.90;;;;;;5069550;28;20051;-74
2021/10/21 04:03:07;;;;;;;4.80;1.25;;;12.30;99.90;;;;;;5071881;28;20552;-74
2021/10/21 04:05:34;;;;;;;3.38;1.10;;;12.40;99.90;;;;;;5071175;28;20116;-74
2021/10/21 04:08:00;;;;;;;4.78;1.00;;;12.40;99.90;;;;;;5071963;28;20032;-74
2021/10/21 04:10:26;;;;;;;5.75;1.55;;;12.40;99.90;;;;;;5072093;28;20036;-73
2021/10/21 04:12:51;;;;;;;3.05;1.10;;;12.40;99.90;;;;;;5071009;28;20465;-73
2021/10/21 04:15:18;;;;;;;3.65;1.00;;;12.40;99.90;;;;;;5071741;28;20039;-73
2021/10/21 04:17:44;;;;;;;2.65;0.98;;;12.30;99.90;;;;;;5071411;28;20043;-73
2021/10/21 04:20:10;;;;;;;3.20;1.17;;;12.30;99.90;;;;;;5071787;28;20021;-73
2021/10/21 04:22:36;;;;;;;2.42;1.02;;;12.30;99.90;;;;;;5071743;28;20067;-72
2021/10/21 04:25:04;;;;;;;8.73;1.38;;;12.20;99.90;;;;;;5071170;28;20048;-74
2021/10/21 04:27:30;;;;;;;4.18;1.10;;;12.20;99.90;;;;;;5071638;28;20040;-74
2021/10/21 04:29:55;;;;;;;2.25;0.90;;;12.20;99.90;;;;;;5071878;28;20065;-74
2021/10/21 04:32:21;;;;;;;7.47;1.50;;;12.20;99.90;;;;;;5070808;28;20156;-74
2021/10/21 04:34:46;;;;;;;6.63;1.48;;;12.20;99.90;;;;;;5071760;28;20038;-73
2021/10/21 04:37:18;;;;;;;2.53;1.20;;;12.20;99.90;;;;;;5071499;28;20033;-73
2021/10/21 04:39:43;;;;;;;2.60;0.50;;;12.20;99.90;;;;;;5071043;28;20052;-72
2021/10/21 04:42:09;;;;;;;3.63;0.60;;;12.00;99.90;;;;;;5071532;28;20097;-74
2021/10/21 04:44:34;;;;;;;0.73;0.30;;;11.90;99.90;;;;;;5071281;28;20099;-74
2021/10/21 04:47:00;;;;;;;1.90;0.50;;;11.70;99.90;;;;;;5052862;28;20501;-75
2021/10/21 04:49:25;;;;;;;8.80;0.60;;;11.60;99.90;;;;;;5071318;28;20598;-76
2021/10/21 04:51:51;;;;;;;2.38;0.40;;;11.40;99.90;;;;;;5071443;28;20111;-75
2021/10/21 04:54:17;;;;;;;3.45;0.50;;;11.40;99.90;;;;;;5072063;28;20415;-75
2021/10/21 04:56:44;;;;;;;3.50;0.50;;;11.30;99.90;;;;;;5075648;28;20476;-75
2021/10/21 04:59:09;;;;;;;5.35;0.60;;;11.20;99.90;;;;;;5075370;28;20070;-75
2021/10/21 05:01:35;;;;;;;12.75;1.23;;;11.10;99.90;;;;;;5075078;28;20373;-74
2021/10/21 05:04:01;;;;;;;9.45;1.90;;;11.00;99.90;;;;;;5075434;28;20151;-74
2021/10/21 05:06:26;;;;;;;4.55;0.70;;;11.00;99.90;;;;;;5066861;28;20064;-75
2021/10/21 05:08:58;;;;;;;2.05;0.52;;;11.00;99.90;;;;;;5069258;28;20330;-75
2021/10/21 05:11:23;;;;;;;5.93;0.63;;;11.00;99.90;;;;;;5075209;28;20027;-74
2021/10/21 05:13:49;;;;;;;7.78;1.10;;;10.90;99.90;;;;;;5075631;28;20024;-73
2021/10/21 05:16:14;;;;;;;5.45;0.65;;;10.90;99.90;;;;;;5074390;28;20047;-74
2021/10/21 05:18:41;;;;;;;9.50;1.35;;;10.80;99.90;;;;;;5075483;28;20021;-73
2021/10/21 05:21:07;;;;;;;6.50;1.50;;;10.80;99.90;;;;;;5074343;28;20025;-74
2021/10/21 05:23:32;;;;;;;4.88;0.98;;;10.80;99.90;;;;;;5075572;28;20020;-73
2021/10/21 05:25:58;;;;;;;12.20;1.38;;;10.80;99.90;;;;;;5075324;28;20357;-73
2021/10/21 05:28:23;;;;;;;8.32;1.80;;;10.70;99.90;;;;;;5074409;28;20505;-73
2021/10/21 05:30:49;;;;;;;6.28;1.10;;;10.70;99.90;;;;;;5074333;28;20020;-74
2021/10/21 05:33:14;;;;;;;11.77;1.10;;;10.70;99.90;;;;;;5069819;28;20107;-74
2021/10/21 05:35:43;;;;;;;19.77;1.70;;;11.00;99.90;;;;;;5072773;28;20468;-73
2021/10/21 05:38:08;;;;;;;16.02;1.85;;;10.70;99.90;;;;;;5072601;28;20023;-74
2021/10/21 05:40:34;;;;;;;12.93;1.20;;;10.70;99.90;;;;;;5073587;28;20025;-74
2021/10/21 05:42:59;;;;;;;6.20;1.67;;;10.60;99.90;;;;;;5071388;28;20076;-74
2021/10/21 05:45:25;;;;;;;11.93;1.95;;;10.60;99.90;;;;;;5072414;28;20025;-74
2021/10/21 05:47:50;;;;;;;9.45;1.30;;;10.60;99.90;;;;;;5073099;28;20036;-73
2021/10/21 05:50:16;;;;;;;8.65;1.45;;;10.60;99.90;;;;;;5072260;28;20116;-74
2021/10/21 05:52:41;;;;;;;13.30;1.60;;;10.60;99.90;;;;;;5072451;28;20108;-74
2021/10/21 05:55:08;;;;;;;11.82;1.75;;;10.60;99.90;;;;;;5073320;28;20026;-73
2021/10/21 05:57:33;;;;;;;11.40;1.80;;;10.70;99.90;;;;;;5072836;28;20016;-74
2021/10/21 05:59:59;;;;;;;15.93;1.95;;;10.70;99.90;;;;;;5073008;28;20021;-73
2021/10/21 06:02:25;;;;;;;11.45;2.20;;;10.70;99.90;;;;;;5072929;28;20074;-74
2021/10/21 06:04:50;;;;;;;23.92;1.65;;;10.80;99.90;;;;;;5071211;28;20095;-74
2021/10/21 06:07:16;;;;;;;18.70;1.70;;;10.80;99.90;;;;;;5072602;28;20389;-75
2021/10/21 06:09:42;;;;;;;9.80;1.88;;;10.90;99.90;;;;;;5067409;28;20025;-74
2021/10/21 06:12:08;;;;;;;12.25;2.08;;;10.90;99.90;;;;;;5072331;28;20039;-74
2021/10/21 06:14:34;;;;;;;14.35;1.42;;;11.00;99.90;;;;;;5073447;28;20016;-74
2021/10/21 06:17:00;;;;;;;19.60;3.15;;;11.10;99.90;;;;;;5073129;28;20099;-74
2021/10/21 06:19:26;;;;;;;14.80;2.25;;;11.10;99.90;;;;;;5071982;28;20104;-74
2021/10/21 06:21:59;;;;;;;19.92;2.22;;;11.30;99.90;;;;;;5073216;28;20021;-74
2021/10/21 06:24:25;;;;;;;15.48;2.10;;;11.40;99.90;;;;;;5069672;28;20492;-73
2021/10/21 06:26:51;;;;;;;12.77;2.63;;;11.30;99.90;;;;;;5072985;28;20035;-74
2021/10/21 06:29:17;;;;;;;12.85;1.83;;;11.40;99.90;;;;;;5072797;28;20037;-73
2021/10/21 06:31:42;;;;;;;11.30;1.85;;;11.40;99.90;;;;;;5071966;28;20020;-73
2021/10/21 06:34:12;;;;;;;5.10;1.40;;;11.50;99.90;;;;;;5072367;28;20025;-74
2021/10/21 06:36:37;;;;;;;3.70;1.30;;;11.40;99.90;;;;;;5072922;28;20024;-74
2021/10/21 06:39:04;;;;;;;10.90;2.08;;;11.50;99.90;;;;;;5072210;28;20062;-74
2021/10/21 06:41:30;;;;;;;6.80;1.02;;;11.50;99.90;;;;;;5069467;28;20017;-74
2021/10/21 06:43:56;;;;;;;13.02;1.77;;;11.60;99.90;;;;;;5072432;28;20052;-73
2021/10/21 06:46:21;;;;;;;9.32;1.70;;;11.50;99.90;;;;;;5070801;28;20025;-73
2021/10/21 06:48:48;;;;;;;10.18;1.85;;;11.40;99.90;;;;;;5072261;28;20157;-73
2021/10/21 06:51:14;;;;;;;13.88;2.47;;;11.30;99.90;;;;;;5072485;28;20025;-73
2021/10/21 06:53:39;;;;;;;11.48;1.90;;;11.10;99.90;;;;;;5071795;28;20016;-74
2021/10/21 06:56:05;;;;;;;15.80;2.13;;;11.10;99.90;;;;;;5072594;28;20512;-73
2021/10/21 06:58:31;;;;;;;15.32;2.15;;;11.10;99.90;;;;;;5072031;28;20009;-76
2021/10/21 07:00:57;;;;;;;12.13;1.95;;;11.10;99.90;;;;;;5070837;28;20397;-74
2021/10/21 07:03:23;;;;;;;12.80;2.88;;;11.00;99.90;;;;;;5070529;28;20008;-76
2021/10/21 07:05:51;;;;;;;10.32;2.17;;;11.10;99.90;;;;;;5070461;28;20019;-75
2021/10/21 07:08:21;;;;;;;17.75;2.67;;;11.10;99.90;;;;;;5069703;28;20063;-75
2021/10/21 07:10:47;;;;;;;8.73;1.90;;;11.10;99.90;;;;;;5070546;28;20070;-76
2021/10/21 07:13:12;;;;;;;11.55;1.77;;;11.00;99.90;;;;;;5071744;28;20033;-75
2021/10/21 07:15:38;;;;;;;9.60;1.67;;;11.00;99.90;;;;;;5071452;28;20020;-76
2021/10/21 07:18:04;;;;;;;14.68;1.65;;;11.00;99.90;;;;;;5071646;28;20048;-76
2021/10/21 07:20:30;;;;;;;8.27;1.67;;;10.90;99.90;;;;;;5071442;28;20024;-77
2021/10/21 07:22:56;;;;;;;14.57;2.60;;;10.90;99.90;;;;;;5071408;28;20047;-77
2021/10/21 07:25:23;;;;;;;8.30;1.60;;;11.00;99.90;;;;;;5072539;28;20099;-75
2021/10/21 07:27:49;;;;;;;11.60;1.95;;;10.90;99.90;;;;;;5071555;28;20036;-76
2021/10/21 07:30:15;;;;;;;8.68;1.55;;;10.90;99.90;;;;;;5072672;28;20078;-76
2021/10/21 07:32:42;;;;;;;7.30;1.55;;;10.90;99.90;;;;;;5072821;28;20024;-76
2021/10/21 07:35:08;;;;;;;8.65;1.70;;;11.00;99.90;;;;;;5072078;28;20032;-75
2021/10/21 07:37:34;;;;;;;9.38;2.13;;;11.00;99.90;;;;;;5071535;28;20476;-76
2021/10/21 07:40:02;;;;;;;7.18;2.40;;;11.10;99.90;;;;;;5072207;28;20067;-78
2021/10/21 07:42:28;;;;;;;5.88;1.40;;;11.20;99.90;;;;;;5071116;28;20476;-77
2021/10/21 07:44:53;;;;;;;5.32;1.38;;;11.20;99.90;;;;;;5072137;28;20096;-77
2021/10/21 07:47:20;;;;;;;8.77;1.67;;;11.10;99.90;;;;;;5070962;28;20025;-76
2021/10/21 07:49:46;;;;;;;7.70;1.80;;;11.20;99.90;;;;;;5071380;28;20058;-77
2021/10/21 07:52:13;;;;;;;7.25;1.98;;;11.30;99.90;;;;;;5072218;28;20024;-76
2021/10/21 07:54:38;;;;;;;8.93;2.15;;;11.40;99.90;;;;;;5072376;28;20427;-78
2021/10/21 07:57:06;;;;;;;6.30;1.55;;;11.50;99.90;;;;;;5071691;28;20021;-76
2021/10/21 07:59:33;;;;;;;12.77;2.17;;;11.60;99.90;;;;;;5072448;28;20054;-77
2021/10/21 08:01:59;;;;;;;11.07;2.00;;;11.60;99.90;;;;;;5072560;28;20488;-76
2021/10/21 08:04:26;;;;;;;11.35;1.77;;;11.80;99.90;;;;;;5071329;28;20583;-77
2021/10/21 08:06:52;;;;;;;3.80;1.08;;;11.70;99.90;;;;;;5072066;28;20383;-76
2021/10/21 08:09:18;;;;;;;8.70;1.73;;;11.70;99.90;;;;;;5071891;28;20028;-76
2021/10/21 08:11:46;;;;;;;7.43;1.38;;;11.70;99.90;;;;;;5065511;28;20029;-78
2021/10/21 08:14:12;;;;;;;4.22;1.05;;;11.60;99.90;;;;;;5065659;28;20056;-77
2021/10/21 08:16:38;;;;;;;7.68;1.30;;;11.40;99.90;;;;;;5069023;28;20067;-78
2021/10/21 08:19:04;;;;;;;9.85;1.63;;;11.30;99.90;;;;;;5054631;28;20032;-79
2021/10/21 08:21:32;;;;;;;9.85;1.58;;;11.30;99.90;;;;;;5058409;28;20020;-77
2021/10/21 08:23:59;;;;;;;12.35;1.95;;;11.30;99.90;;;;;;5058425;28;20511;-79
2021/10/21 08:26:26;;;;;;;7.45;1.48;;;11.20;99.90;;;;;;5062138;28;20112;-80
2021/10/21 08:28:52;;;;;;;9.82;1.25;;;11.20;99.90;;;;;;5067569;28;20090;-79
2021/10/21 08:31:17;;;;;;;6.10;1.65;;;11.30;99.90;;;;;;5070011;28;20558;-80
2021/10/21 08:33:44;;;;;;;7.68;1.35;;;11.30;99.90;;;;;;5071311;28;20515;-80
2021/10/21 08:36:12;;;;;;;6.82;1.60;;;11.30;99.90;;;;;;5069776;28;20494;-79
2021/10/21 08:38:38;;;;;;;6.03;1.23;;;11.30;99.90;;;;;;5070068;28;20064;-78
2021/10/21 08:41:06;;;;;;;4.25;1.27;;;11.40;99.90;;;;;;5072056;28;20066;-78
2021/10/21 08:43:32;;;;;;;5.53;1.13;;;11.30;99.90;;;;;;5068178;28;20094;-77
2021/10/21 08:45:59;;;;;;;7.82;1.55;;;11.30;99.90;;;;;;5070655;28;20469;-77
2021/10/21 08:48:28;;;;;;;7.72;1.33;;;11.30;99.90;;;;;;5069228;28;20028;-77
2021/10/21 08:50:56;;;;;;;13.25;1.30;;;11.40;99.90;;;;;;5070240;28;20017;-77
2021/10/21 08:53:21;;;;;;;10.98;2.00;;;11.40;99.90;;;;;;5070005;28;20028;-80
2021/10/21 08:55:50;;;;;;;8.98;2.08;;;11.50;99.90;;;;;;5071639;28;20020;-77
2021/10/21 08:58:16;;;;;;;9.25;2.17;;;11.50;99.90;;;;;;5070274;28;20469;-78
2021/10/21 09:00:42;;;;;;;6.75;1.00;;;11.50;99.90;;;;;;5071204;28;20047;-78
2021/10/21 09:03:15;;;;;;;4.68;1.55;;;11.50;99.90;;;;;;5071453;28;20396;-78
2021/10/21 09:05:53;;;;;;;13.80;2.08;;;11.50;99.90;;;;;;5072037;28;20107;-79
2021/10/21 09:08:20;;;;;;;6.70;1.08;;;11.50;99.90;;;;;;5065738;28;20036;-79
2021/10/21 09:10:48;;;;;;;7.00;1.98;;;11.50;99.90;;;;;;5069678;28;20021;-78
2021/10/21 09:13:28;;;;;;;8.40;1.17;;;11.50;99.90;;;;;;5069095;28;20029;-78
2021/10/21 09:15:57;;;;;;;5.00;1.55;;;11.50;99.90;;;;;;5069545;28;20021;-76
2021/10/21 09:18:24;;;;;;;7.85;1.27;;;11.50;99.90;;;;;;5069422;28;20032;-79
2021/10/21 09:20:49;;;;;;;7.85;1.27;;;11.60;99.90;;;;;;5069427;28;20059;-78
2021/10/21 09:23:25;;;;;;;14.95;1.08;;;11.60;99.90;;;;;;5070284;28;20056;-78
2021/10/21 09:25:50;;;;;;;5.97;1.27;;;11.60;99.90;;;;;;5070300;28;20025;-77
2021/10/21 09:28:26;;;;;;;6.93;1.27;;;11.70;99.90;;;;;;5070565;28;20059;-79
2021/10/21 09:30:53;;;;;;;10.40;1.88;;;11.70;99.90;;;;;;5071528;28;20020;-78
2021/10/21 09:33:18;;;;;;;6.63;1.40;;;11.80;99.90;;;;;;5071793;28;20375;-79
2021/10/21 09:36:00;;;;;;;10.52;1.95;;;11.80;99.90;;;;;;5071776;28;20059;-78
2021/10/21 09:38:28;;;;;;;7.20;1.17;;;11.80;99.90;;;;;;5071152;28;20380;-78
2021/10/21 09:40:56;;;;;;;9.15;1.95;;;11.80;99.90;;;;;;5073436;28;20020;-77
2021/10/21 09:43:32;;;;;;;14.38;2.15;;;11.80;99.90;;;;;;5072457;28;20535;-80
2021/10/21 09:45:59;;;;;;;13.23;1.58;;;11.80;99.90;;;;;;5067028;28;20032;-79
2021/10/21 09:48:24;;;;;;;14.80;1.98;;;11.80;99.90;;;;;;5067962;28;20073;-80
2021/10/21 09:50:50;;;;;;;15.07;2.13;;;11.90;99.90;;;;;;5061241;28;20107;-78
2021/10/21 09:53:20;;;;;;;4.68;0.93;;;12.00;99.90;;;;;;5074736;28;20024;-78
2021/10/21 09:55:47;;;;;;;8.77;1.10;;;12.00;99.90;;;;;;5071648;28;20544;-79
2021/10/21 09:58:16;;;;;;;8.57;1.05;;;12.00;99.90;;;;;;5071855;28;20273;-77
2021/10/21 10:00:42;;;;;;;5.28;1.20;;;12.00;99.90;;;;;;5074585;28;20029;-77
2021/10/21 10:03:17;;;;;;;13.52;1.25;;;12.00;99.90;;;;;;5073885;28;20074;-77
2021/10/21 10:05:50;;;;;;;9.43;2.22;;;12.20;99.90;;;;;;5074103;28;20099;-78
2021/10/21 10:08:18;;;;;;;8.70;1.52;;;12.30;99.90;;;;;;5071307;28;20039;-78
2021/10/21 10:10:46;;;;;;;11.75;1.52;;;12.40;99.90;;;;;;5073090;28;20012;-80
2021/10/21 10:13:15;;;;;;;4.25;1.20;;;12.40;99.90;;;;;;5074641;28;20427;-80
2021/10/21 10:15:44;;;;;;;6.03;1.10;;;12.50;99.90;;;;;;5070446;28;20024;-79
2021/10/21 10:18:21;;;;;;;7.93;1.42;;;12.50;99.90;;;;;;5073443;28;20020;-79
2021/10/21 10:21:10;;;;;;;7.13;1.30;;;12.50;99.90;;;;;;5074178;28;20051;-82
2021/10/21 10:23:41;;;;;;;7.47;1.30;;;12.50;99.90;;;;;;5067764;28;20036;-80
2021/10/21 10:26:07;;;;;;;9.30;1.15;;;12.60;99.90;;;;;;5074138;28;20039;-79
2021/10/21 10:28:55;;;;;;;9.27;1.08;;;12.60;99.90;;;;;;5074186;28;20041;-80
2021/10/21 10:31:58;;;;;;;7.47;2.58;;;12.60;99.90;;;;;;5070674;28;20021;-81
2021/10/21 10:34:33;;;;;;;10.43;1.40;;;12.70;99.90;;;;;;4992237;28;20030;-79
2021/10/21 10:37:17;;;;;;;5.72;1.30;;;12.80;99.90;;;;;;5061068;28;20039;-79
2021/10/21 10:39:56;;;;;;;2.15;0.80;;;12.90;99.90;;;;;;5055745;28;20028;-81
2021/10/21 10:42:33;;;;;;;4.75;0.75;;;12.90;99.90;;;;;;5073311;28;20076;-80
2021/10/21 10:45:00;;;;;;;3.20;0.45;;;12.80;99.90;;;;;;5061222;28;20034;-80
2021/10/21 10:47:52;;;;;;;1.40;0.75;;;12.90;99.90;;;;;;5053840;28;20025;-81
2021/10/21 10:50:25;;;;;;;2.20;0.50;;;13.00;99.90;;;;;;5069224;28;20101;-79
2021/10/21 10:53:07;;;;;;;7.18;1.02;;;13.10;99.90;;;;;;5072185;28;20070;-79
2021/10/21 10:55:38;;;;;;;7.75;0.75;;;13.30;99.90;;;;;;5070470;28;20029;-78
2021/10/21 10:58:05;;;;;;;4.55;0.77;;;13.30;99.90;;;;;;5071449;28;20031;-78
2021/10/21 11:00:48;;;;;;;6.28;0.85;;;13.20;99.90;;;;;;5070477;28;20090;-79
2021/10/21 11:03:35;;;;;;;3.25;0.70;;;12.70;99.90;;;;;;5072045;28;20023;-81
2021/10/21 11:06:13;;;;;;;4.10;0.77;;;12.00;99.90;;;;;;5071763;28;20097;-80
2021/10/21 11:09:06;;;;;;;2.85;0.57;;;11.40;99.90;;;;;;5069957;28;20032;-83
2021/10/21 11:11:54;;;;;;;8.38;1.50;;;10.90;99.90;;;;;;5071887;28;20485;-80
2021/10/21 11:14:38;;;;;;;9.32;0.90;;;10.60;99.90;;;;;;5069290;28;20029;-80
2021/10/21 11:17:05;;;;;;;8.55;1.00;;;10.50;99.90;;;;;;5070350;28;20039;-81
2021/10/21 11:19:42;;;;;;;5.85;1.27;;;10.40;99.90;;;;;;5077930;28;20104;-81
2021/10/21 11:22:09;;;;;;;5.00;0.80;;;10.30;99.90;;;;;;5072650;28;20024;-80
2021/10/21 11:24:43;;;;;;;5.15;1.00;;;10.30;99.90;;;;;;5072972;28;20104;-80
2021/10/21 11:27:09;;;;;;;4.90;0.80;;;10.10;99.90;;;;;;5072619;28;20033;-79
2021/10/21 11:29:35;;;;;;;8.05;1.10;;;10.10;99.90;;;;;;5072046;28;20503;-81
2021/10/21 11:32:09;;;;;;;4.63;1.38;;;10.00;99.90;;;;;;5072292;28;20064;-81
2021/10/21 11:34:36;;;;;;;7.13;1.02;;;9.90;99.90;;;;;;5071519;28;20048;-81
2021/10/21 11:37:03;;;;;;;2.78;0.70;;;10.00;99.90;;;;;;5069181;28;20024;-81
2021/10/21 11:39:39;;;;;;;9.23;1.70;;;10.00;99.90;;;;;;5071540;28;20333;-81
2021/10/21 11:42:07;;;;;;;2.13;0.60;;;9.90;99.90;;;;;;5067158;28;20119;-82
2021/10/21 11:44:39;;;;;;;10.23;1.10;;;9.90;99.90;;;;;;5064373;28;20036;-81
2021/10/21 11:47:06;;;;;;;5.88;0.88;;;9.90;99.90;;;;;;5056522;28;20107;-81
2021/10/21 11:49:34;;;;;;;9.60;0.90;;;10.00;99.90;;;;;;5056994;28;20489;-81
2021/10/21 11:52:08;;;;;;;5.40;1.23;;;9.90;99.90;;;;;;5058643;28;20029;-81
2021/10/21 11:54:36;;;;;;;4.78;0.95;;;9.90;99.90;;;;;;5063137;28;20132;-81
2021/10/21 11:57:02;;;;;;;5.60;1.15;;;9.90;99.90;;;;;;5062972;28;20025;-81
2021/10/21 11:59:39;;;;;;;8.82;1.35;;;9.90;99.90;;;;;;5064678;28;20029;-82
2021/10/21 12:02:11;;;;;;;5.55;1.00;;;10.10;99.90;;;;;;5065477;28;20096;-82
2021/10/21 12:04:41;;;;;;;4.38;0.90;;;10.10;99.90;;;;;;5065495;28;20028;-81
2021/10/21 12:07:07;;;;;;;11.27;1.20;;;10.20;99.90;;;;;;5067942;28;20564;-81
2021/10/21 12:09:41;;;;;;;5.68;1.27;;;10.20;99.90;;;;;;5072590;28;20524;-80
2021/10/21 12:12:12;;;;;;;6.03;1.63;;;10.30;99.90;;;;;;5058501;28;20060;-79
2021/10/21 12:14:42;;;;;;;11.00;1.63;;;10.40;99.90;;;;;;5061004;28;20021;-83
2021/10/21 12:17:08;;;;;;;7.85;1.55;;;10.40;99.90;;;;;;5054666;28;20070;-79
2021/10/21 12:19:34;;;;;;;6.97;0.98;;;10.50;99.90;;;;;;5067770;28;20084;-80
2021/10/21 12:22:17;;;;;;;12.52;3.05;;;10.50;99.90;;;;;;5071834;28;20028;-77
2021/10/21 12:24:45;;;;;;;11.25;1.83;;;10.60;99.90;;;;;;5069260;28;20044;-80
2021/10/21 12:27:18;;;;;;;5.30;1.23;;;10.60;99.90;;;;;;5072124;28;20070;-81
2021/10/21 12:29:44;;;;;;;5.57;1.13;;;10.70;99.90;;;;;;5072401;28;20059;-80
2021/10/21 12:32:15;;;;;;;9.60;1.52;;;10.70;99.90;;;;;;5070999;28;20048;-77
2021/10/21 12:34:42;;;;;;;6.07;1.25;;;10.80;99.90;;;;;;5072185;28;20047;-79
2021/10/21 12:37:22;;;;;;;10.35;1.58;;;10.70;99.90;;;;;;5071506;28;20028;-79
2021/10/21 12:39:48;;;;;;;8.13;1.30;;;10.80;99.90;;;;;;5069912;28;20059;-79
2021/10/21 12:42:22;;;;;;;7.40;1.40;;;10.80;99.90;;;;;;5066885;28;20037;-80
2021/10/21 12:44:59;;;;;;;4.82;1.05;;;10.80;99.90;;;;;;5072357;28;20036;-81
2021/10/21 12:47:31;;;;;;;2.92;0.80;;;10.60;99.90;;;;;;5070497;28;20032;-81
2021/10/21 12:49:56;;;;;;;4.05;1.05;;;10.50;99.90;;;;;;5057895;28;20029;-81